Time;durP1;ratioP1;P1;durP2;ratioP2;P2;SDS_P1;SDS_P2;PMS_P1;PMS_P2;Temp;Humidity;BMP_temperature;BMP_pressure;BME280_temperature;BME280_humidity;BME280_pressure;Samples;Min_cycle;Max_cycle;Signal;HPM_P1;HPM_P2
2023/05/31 00:00:14;;;;;;;3.65;2.70;;;19.50;99.90;;;;;;1950163;72;22205;-77
2023/05/31 00:03:07;;;;;;;4.55;3.08;;;19.50;99.90;;;;;;1906455;75;21071;-77
2023/05/31 00:05:59;;;;;;;6.50;2.72;;;19.60;99.90;;;;;;1902830;75;21145;-77
2023/05/31 00:08:50;;;;;;;5.10;2.80;;;19.70;99.90;;;;;;1897524;75;21118;-77
2023/05/31 00:11:42;;;;;;;3.62;2.50;;;19.70;99.90;;;;;;1894967;75;21115;-78
2023/05/31 00:14:33;;;;;;;4.92;3.25;;;19.70;99.90;;;;;;1894512;75;21063;-78
2023/05/31 00:17:25;;;;;;;4.65;3.10;;;19.80;99.90;;;;;;1896826;75;21115;-78
2023/05/31 00:20:18;;;;;;;3.52;3.00;;;19.80;99.90;;;;;;1898291;75;21071;-77
2023/05/31 00:23:10;;;;;;;4.62;2.95;;;19.80;99.90;;;;;;1895171;75;21090;-78
2023/05/31 00:26:02;;;;;;;4.22;3.27;;;19.70;99.90;;;;;;1894476;75;21690;-78
2023/05/31 00:28:53;;;;;;;4.08;2.72;;;19.70;99.90;;;;;;1895551;75;21058;-78
2023/05/31 00:31:45;;;;;;;4.00;3.20;;;19.80;99.90;;;;;;1899289;75;21110;-78
2023/05/31 00:34:36;;;;;;;3.40;2.62;;;19.70;99.90;;;;;;1905978;75;21148;-78
2023/05/31 00:37:28;;;;;;;3.72;2.77;;;19.80;99.90;;;;;;1906145;75;21124;-78
2023/05/31 00:40:20;;;;;;;4.30;3.35;;;19.70;99.90;;;;;;1905935;75;21152;-78
2023/05/31 00:43:11;;;;;;;3.55;2.77;;;19.60;99.90;;;;;;1902131;75;21079;-78
2023/05/31 00:46:04;;;;;;;3.27;2.90;;;19.50;99.90;;;;;;1896827;75;21496;-77
2023/05/31 00:48:57;;;;;;;4.40;3.27;;;19.50;99.90;;;;;;1894955;75;21141;-77
2023/05/31 00:51:49;;;;;;;4.85;2.87;;;19.40;99.90;;;;;;1894591;75;21062;-77
2023/05/31 00:54:41;;;;;;;3.62;2.98;;;19.50;99.90;;;;;;1916704;75;21098;-77
2023/05/31 00:57:33;;;;;;;3.77;3.00;;;19.40;99.90;;;;;;1902578;75;21074;-78
2023/05/31 01:00:26;;;;;;;4.05;3.15;;;19.40;99.90;;;;;;1893121;75;21585;-77
2023/05/31 01:03:19;;;;;;;4.10;2.70;;;19.30;99.90;;;;;;1895090;75;21180;-77
2023/05/31 01:06:11;;;;;;;3.95;2.80;;;19.30;99.90;;;;;;1895927;75;21172;-77
2023/05/31 01:09:05;;;;;;;3.83;2.92;;;19.20;99.90;;;;;;1900034;75;21113;-77
2023/05/31 01:12:02;;;;;;;4.28;2.80;;;19.10;99.90;;;;;;1894422;75;21130;-77
2023/05/31 01:15:01;;;;;;;4.65;2.98;;;18.90;99.90;;;;;;1894195;75;21123;-78
2023/05/31 01:20:35;;;;;;;4.45;3.05;;;18.80;99.90;;;;;;1947593;72;22150;-77
2023/05/31 01:23:43;;;;;;;4.47;2.90;;;18.70;99.90;;;;;;1885856;75;21099;-77
2023/05/31 01:26:38;;;;;;;4.60;2.93;;;18.70;99.90;;;;;;1883963;75;21098;-77
2023/05/31 01:29:31;;;;;;;7.17;3.00;;;18.70;99.90;;;;;;1882841;75;21099;-78
2023/05/31 01:32:24;;;;;;;3.37;2.80;;;18.60;99.90;;;;;;1883024;75;21566;-78
2023/05/31 01:35:17;;;;;;;2.95;2.60;;;18.60;99.90;;;;;;1885574;75;21647;-78
2023/05/31 01:38:08;;;;;;;4.00;3.30;;;18.70;99.90;;;;;;1886401;75;21285;-78
2023/05/31 01:41:00;;;;;;;4.83;3.08;;;18.60;99.90;;;;;;1874892;75;21102;-78
2023/05/31 01:43:52;;;;;;;5.83;3.15;;;18.50;99.90;;;;;;1893875;75;21121;-77
2023/05/31 01:46:45;;;;;;;3.37;2.60;;;18.50;99.90;;;;;;1894273;75;21122;-77
2023/05/31 01:49:38;;;;;;;4.30;3.62;;;18.40;99.90;;;;;;1887954;75;21199;-77
2023/05/31 01:52:29;;;;;;;4.47;3.12;;;18.40;99.90;;;;;;1884702;75;21129;-78
2023/05/31 01:58:03;;;;;;;4.58;3.22;;;18.30;99.90;;;;;;1952894;72;22188;-77
2023/05/31 02:00:55;;;;;;;3.47;2.75;;;18.40;99.90;;;;;;1933933;73;21154;-77
2023/05/31 02:03:48;;;;;;;4.28;3.10;;;18.40;99.90;;;;;;1917040;75;21098;-77
2023/05/31 02:06:39;;;;;;;3.25;2.80;;;18.40;99.90;;;;;;1923424;73;21140;-77
2023/05/31 02:09:30;;;;;;;3.45;3.02;;;18.40;99.90;;;;;;1926803;73;21098;-77
2023/05/31 02:12:21;;;;;;;3.92;3.00;;;18.40;99.90;;;;;;1917024;75;21352;-77
2023/05/31 02:15:13;;;;;;;4.12;2.60;;;18.40;99.90;;;;;;1917130;75;21599;-77
2023/05/31 02:18:05;;;;;;;4.70;3.00;;;18.30;99.90;;;;;;1914413;75;21129;-77
2023/05/31 02:20:57;;;;;;;4.20;3.10;;;18.20;99.90;;;;;;1940991;73;21156;-77
2023/05/31 02:23:48;;;;;;;4.78;3.05;;;18.30;99.90;;;;;;1917261;75;21165;-77
2023/05/31 02:26:40;;;;;;;5.00;3.25;;;18.20;99.90;;;;;;1917318;75;21216;-77
2023/05/31 02:29:31;;;;;;;3.72;2.95;;;18.20;99.90;;;;;;1917249;75;21177;-77
2023/05/31 02:32:23;;;;;;;4.15;3.15;;;18.20;99.90;;;;;;1917450;75;21102;-77
2023/05/31 02:35:15;;;;;;;3.37;2.90;;;18.20;99.90;;;;;;1937450;73;21159;-77
2023/05/31 02:38:06;;;;;;;5.12;3.17;;;18.10;99.90;;;;;;1931960;73;21172;-77
2023/05/31 02:40:59;;;;;;;14.50;3.87;;;18.10;99.90;;;;;;1918417;73;21119;-77
2023/05/31 02:43:50;;;;;;;5.35;3.30;;;18.10;99.90;;;;;;1915270;75;21150;-77
2023/05/31 02:46:43;;;;;;;5.95;3.50;;;18.10;99.90;;;;;;1934895;73;21193;-78
2023/05/31 02:49:35;;;;;;;4.15;3.42;;;18.20;99.90;;;;;;1916726;75;21590;-78
2023/05/31 02:52:28;;;;;;;5.17;3.22;;;18.20;99.90;;;;;;1916974;75;21110;-78
2023/05/31 02:55:23;;;;;;;6.75;3.55;;;18.20;99.90;;;;;;1874813;75;21115;-78
2023/05/31 02:58:28;;;;;;;4.25;3.30;;;18.20;99.90;;;;;;1893681;75;21118;-78
2023/05/31 03:01:37;;;;;;;4.85;3.60;;;18.20;99.90;;;;;;1921482;73;21135;-78
2023/05/31 03:04:33;;;;;;;3.60;3.10;;;18.20;99.90;;;;;;1877685;73;21126;-78
2023/05/31 03:07:26;;;;;;;4.70;3.55;;;18.20;99.90;;;;;;1932488;73;21143;-78
2023/05/31 03:10:17;;;;;;;4.58;3.58;;;18.20;99.90;;;;;;1929301;73;21488;-78
2023/05/31 03:13:09;;;;;;;4.40;3.30;;;18.20;99.90;;;;;;1927377;73;21038;-78
2023/05/31 03:16:01;;;;;;;6.08;3.72;;;18.20;99.90;;;;;;1925488;73;21083;-78
2023/05/31 03:18:53;;;;;;;5.60;3.65;;;18.10;99.90;;;;;;1861340;76;21175;-78
2023/05/31 03:21:44;;;;;;;6.12;3.90;;;18.00;99.90;;;;;;1916273;75;21128;-78
2023/05/31 03:24:36;;;;;;;5.40;3.35;;;17.90;99.90;;;;;;1924902;73;21526;-78
2023/05/31 03:27:28;;;;;;;4.15;3.60;;;17.90;99.90;;;;;;1927246;73;21200;-78
2023/05/31 03:30:20;;;;;;;3.80;3.25;;;17.90;99.90;;;;;;1929481;73;21171;-78
2023/05/31 03:33:13;;;;;;;7.12;3.70;;;17.80;99.90;;;;;;1916401;75;21181;-78
2023/05/31 03:36:05;;;;;;;7.62;4.05;;;17.80;99.90;;;;;;1921680;74;21111;-78
2023/05/31 03:38:58;;;;;;;4.37;3.70;;;17.80;99.90;;;;;;1946830;73;21115;-78
2023/05/31 03:41:50;;;;;;;5.53;4.00;;;17.70;99.90;;;;;;1916159;75;21553;-78
2023/05/31 03:44:41;;;;;;;5.25;3.72;;;17.70;99.90;;;;;;1914219;75;21189;-78
2023/05/31 03:47:33;;;;;;;5.17;3.67;;;17.70;99.90;;;;;;1948235;73;21062;-78
2023/05/31 03:50:24;;;;;;;7.45;4.10;;;17.60;99.90;;;;;;1921344;73;21125;-78
2023/05/31 03:53:16;;;;;;;5.78;3.83;;;17.60;99.90;;;;;;1916360;75;21113;-78
2023/05/31 03:56:08;;;;;;;4.78;3.87;;;17.70;99.90;;;;;;1933584;73;21087;-78
2023/05/31 03:58:59;;;;;;;5.58;3.70;;;17.70;99.90;;;;;;1928079;73;21079;-78
2023/05/31 04:01:55;;;;;;;6.47;4.30;;;17.60;99.90;;;;;;1927645;73;21097;-78
2023/05/31 04:04:51;;;;;;;6.03;3.77;;;17.60;99.90;;;;;;1925075;73;21129;-79
2023/05/31 04:07:46;;;;;;;5.25;4.00;;;17.60;99.90;;;;;;1916272;75;21116;-78
2023/05/31 04:10:40;;;;;;;7.90;3.98;;;17.60;99.90;;;;;;1886777;75;21221;-78
2023/05/31 04:13:34;;;;;;;6.47;4.10;;;17.50;99.90;;;;;;1910918;74;21148;-78
2023/05/31 04:16:26;;;;;;;4.67;4.17;;;17.50;99.90;;;;;;1916103;75;21190;-78
2023/05/31 04:19:19;;;;;;;6.35;4.03;;;17.50;99.90;;;;;;1910939;73;21120;-78
2023/05/31 04:22:13;;;;;;;6.47;3.98;;;17.50;99.90;;;;;;1932161;73;21100;-78
2023/05/31 04:25:09;;;;;;;8.68;3.90;;;17.40;99.90;;;;;;1916314;75;21566;-78
2023/05/31 04:28:07;;;;;;;8.00;4.00;;;17.30;99.90;;;;;;1925846;73;21046;-78
2023/05/31 04:31:04;;;;;;;5.67;4.37;;;17.30;99.90;;;;;;1921991;73;21098;-78
2023/05/31 04:34:00;;;;;;;5.45;4.17;;;17.30;99.90;;;;;;1916014;75;21111;-78
2023/05/31 04:36:52;;;;;;;6.45;4.67;;;17.40;99.90;;;;;;1916028;75;21163;-78
2023/05/31 04:39:46;;;;;;;7.33;4.58;;;17.50;99.90;;;;;;1916056;75;21139;-79
2023/05/31 04:42:42;;;;;;;5.55;4.20;;;17.50;99.90;;;;;;1916239;75;21055;-78
2023/05/31 04:45:36;;;;;;;5.40;4.45;;;17.50;99.90;;;;;;1916422;75;21615;-78
2023/05/31 04:48:31;;;;;;;6.12;4.50;;;17.60;99.90;;;;;;1917284;73;21058;-78
2023/05/31 04:51:30;;;;;;;7.87;5.10;;;17.50;99.90;;;;;;1930847;73;21107;-78
2023/05/31 04:54:23;;;;;;;6.87;4.35;;;17.50;99.90;;;;;;1916106;75;21209;-78
2023/05/31 04:57:19;;;;;;;5.72;4.45;;;17.60;99.90;;;;;;1915714;75;21127;-78
2023/05/31 05:00:15;;;;;;;7.67;5.10;;;17.50;99.90;;;;;;1918183;74;21130;-78
2023/05/31 05:03:10;;;;;;;6.87;4.45;;;17.50;99.90;;;;;;1917736;74;21050;-78
2023/05/31 05:06:08;;;;;;;7.20;4.80;;;17.50;99.90;;;;;;1874511;75;21084;-78
2023/05/31 05:09:06;;;;;;;5.80;4.47;;;17.30;99.90;;;;;;1901761;74;21174;-78
2023/05/31 05:12:00;;;;;;;7.15;4.87;;;17.30;99.90;;;;;;1910419;74;21117;-78
2023/05/31 05:14:54;;;;;;;6.28;4.22;;;17.40;99.90;;;;;;1911982;74;21098;-78
2023/05/31 05:17:47;;;;;;;6.40;4.83;;;17.40;99.90;;;;;;1909921;74;21096;-78
2023/05/31 05:20:39;;;;;;;6.25;4.50;;;17.40;99.90;;;;;;1914125;74;21110;-78
2023/05/31 05:23:35;;;;;;;6.30;4.80;;;17.50;99.90;;;;;;1913107;74;21600;-78
2023/05/31 05:26:28;;;;;;;6.45;4.62;;;17.60;99.90;;;;;;1901354;74;21108;-78
2023/05/31 05:29:21;;;;;;;5.72;4.33;;;17.60;99.90;;;;;;1876976;73;21127;-78
2023/05/31 05:32:14;;;;;;;5.53;4.35;;;17.60;99.90;;;;;;1903164;74;21232;-78
2023/05/31 05:35:09;;;;;;;5.80;4.55;;;17.70;99.90;;;;;;1916133;74;21117;-78
2023/05/31 05:38:02;;;;;;;6.60;4.62;;;17.80;99.90;;;;;;1903063;73;21126;-78
2023/05/31 05:40:55;;;;;;;6.40;4.65;;;17.80;99.90;;;;;;1903451;74;21186;-78
2023/05/31 05:43:47;;;;;;;7.40;4.83;;;17.90;99.90;;;;;;1909741;74;21152;-78
2023/05/31 05:46:40;;;;;;;8.20;4.08;;;18.00;99.90;;;;;;1910146;74;21056;-78
2023/05/31 05:49:34;;;;;;;7.22;3.87;;;18.10;99.90;;;;;;1912917;74;21380;-78
2023/05/31 05:52:28;;;;;;;5.95;4.67;;;18.10;99.90;;;;;;1901562;74;21106;-79
2023/05/31 05:55:22;;;;;;;6.70;4.80;;;18.20;99.90;;;;;;1901725;74;21154;-78
2023/05/31 05:58:16;;;;;;;5.97;4.40;;;18.30;99.90;;;;;;1913869;74;21118;-78
2023/05/31 06:01:20;;;;;;;8.95;4.90;;;18.30;99.90;;;;;;1824538;75;21161;-78
2023/05/31 06:04:17;;;;;;;5.83;4.55;;;18.40;99.90;;;;;;1930985;74;21191;-78
2023/05/31 06:07:36;;;;;;;8.90;4.87;;;18.40;99.90;;;;;;1927779;74;21126;-78
2023/05/31 06:10:30;;;;;;;6.15;4.05;;;18.60;99.90;;;;;;1914594;75;21103;-78
2023/05/31 06:13:23;;;;;;;8.08;4.80;;;18.70;99.90;;;;;;1914299;75;21197;-78
2023/05/31 06:16:21;;;;;;;6.65;4.65;;;18.90;99.90;;;;;;1914395;75;21113;-78
2023/05/31 06:19:19;;;;;;;7.20;4.87;;;19.10;99.90;;;;;;1914058;75;21546;-78
2023/05/31 06:22:16;;;;;;;9.73;4.70;;;19.10;99.90;;;;;;1915227;73;21039;-78
2023/05/31 06:25:12;;;;;;;;;;;19.20;99.90;;;;;;1917336;75;21118;-78
2023/05/31 06:28:05;;;;;;;11.65;5.08;;;19.30;99.90;;;;;;1914197;75;20121;-78
2023/05/31 06:31:00;;;;;;;9.88;4.72;;;19.50;99.90;;;;;;1914026;75;21121;-79
2023/05/31 06:33:52;;;;;;;6.67;4.58;;;19.60;99.90;;;;;;1914330;75;21602;-79
2023/05/31 06:36:45;;;;;;;8.15;5.05;;;19.70;99.90;;;;;;1930422;74;21091;-79
2023/05/31 06:39:45;;;;;;;6.35;4.40;;;19.80;99.90;;;;;;1914083;75;21095;-79
2023/05/31 06:42:40;;;;;;;12.98;4.95;;;19.80;99.90;;;;;;1894264;74;21083;-78
2023/05/31 06:45:41;;;;;;;9.60;5.12;;;20.00;99.90;;;;;;1924652;74;21160;-78
2023/05/31 06:48:51;;;;;;;7.25;4.45;;;20.00;99.90;;;;;;1917532;74;22136;-79
2023/05/31 06:52:05;;;;;;;8.88;4.78;;;20.10;99.90;;;;;;1915549;75;21144;-79
2023/05/31 06:55:02;;;;;;;6.65;3.90;;;20.20;99.90;;;;;;1902175;75;21130;-79
2023/05/31 06:57:57;;;;;;;7.17;4.75;;;20.40;99.90;;;;;;1914495;75;21095;-79
2023/05/31 07:00:50;;;;;;;5.87;4.15;;;20.50;99.90;;;;;;1916277;74;21263;-79
2023/05/31 07:03:42;;;;;;;6.35;4.45;;;20.60;99.90;;;;;;1925622;74;21110;-78
2023/05/31 07:06:37;;;;;;;6.30;4.45;;;20.60;99.90;;;;;;1925590;74;21703;-79
2023/05/31 07:09:34;;;;;;;6.87;4.83;;;20.50;99.90;;;;;;1930207;73;21067;-78
2023/05/31 07:12:27;;;;;;;7.28;4.80;;;20.60;99.90;;;;;;1932900;74;21101;-79
2023/05/31 07:15:20;;;;;;;7.45;4.50;;;20.70;99.90;;;;;;1925904;74;21066;-78
2023/05/31 07:18:16;;;;;;;6.78;4.53;;;20.80;99.90;;;;;;1925781;74;21132;-78
2023/05/31 07:21:10;;;;;;;8.93;5.00;;;20.90;99.90;;;;;;1925441;74;21180;-78
2023/05/31 07:24:02;;;;;;;6.87;4.90;;;20.80;99.90;;;;;;1948533;73;21121;-79
2023/05/31 07:26:56;;;;;;;8.08;4.62;;;20.80;99.90;;;;;;1942046;73;21168;-79
2023/05/31 07:29:54;;;;;;;6.35;4.33;;;20.80;99.90;;;;;;1897201;74;21173;-79
2023/05/31 07:32:51;;;;;;;6.75;4.80;;;21.00;99.90;;;;;;1925598;74;21119;-79
2023/05/31 07:35:44;;;;;;;8.20;5.03;;;21.00;99.90;;;;;;1898362;74;21212;-79
2023/05/31 07:38:37;;;;;;;8.03;5.20;;;21.10;99.90;;;;;;1926254;73;21112;-79
2023/05/31 07:41:28;;;;;;;7.05;4.50;;;21.00;99.90;;;;;;1942945;73;21167;-79
2023/05/31 07:44:21;;;;;;;8.68;4.67;;;21.00;99.90;;;;;;1925927;74;21163;-78
2023/05/31 07:47:12;;;;;;;9.00;4.65;;;21.20;99.90;;;;;;1926061;74;21180;-79
2023/05/31 07:50:05;;;;;;;5.85;4.05;;;21.00;99.90;;;;;;1925649;74;21147;-79
2023/05/31 07:52:57;;;;;;;7.42;4.70;;;21.10;99.90;;;;;;1925965;73;21093;-79
2023/05/31 07:55:50;;;;;;;6.17;4.20;;;21.10;99.90;;;;;;1925778;74;21531;-79
2023/05/31 07:58:42;;;;;;;7.28;4.67;;;21.30;99.90;;;;;;1935048;73;21414;-79
2023/05/31 08:02:07;;;;;;;8.68;4.53;;;21.30;99.90;;;;;;1933288;73;21126;-79
2023/05/31 08:05:01;;;;;;;9.65;4.67;;;21.40;99.90;;;;;;1958246;73;21179;-78
2023/05/31 08:07:52;;;;;;;8.33;4.80;;;21.60;99.90;;;;;;1930762;73;21171;-78
2023/05/31 08:10:43;;;;;;;6.45;4.90;;;21.70;99.90;;;;;;1926040;74;21108;-79
2023/05/31 08:13:35;;;;;;;9.83;4.95;;;21.70;99.90;;;;;;1938596;73;21124;-78
2023/05/31 08:16:26;;;;;;;8.28;4.97;;;21.70;99.90;;;;;;1930207;73;21623;-78
2023/05/31 08:19:17;;;;;;;7.15;4.25;;;21.70;99.90;;;;;;1926039;74;21150;-78
2023/05/31 08:22:09;;;;;;;6.78;4.55;;;21.80;99.90;;;;;;1926035;73;21105;-78
2023/05/31 08:25:00;;;;;;;6.45;4.55;;;21.80;99.90;;;;;;1925774;74;21538;-78
2023/05/31 08:27:52;;;;;;;7.10;5.00;;;21.90;99.90;;;;;;1925766;74;21093;-79
2023/05/31 08:30:43;;;;;;;9.23;4.90;;;22.10;99.90;;;;;;1928032;73;21183;-78
2023/05/31 08:33:36;;;;;;;7.42;4.97;;;22.20;99.90;;;;;;1940153;73;21205;-78
2023/05/31 08:36:28;;;;;;;7.28;4.30;;;22.40;99.90;;;;;;1926488;73;21635;-78
2023/05/31 08:39:19;;;;;;;13.13;5.20;;;22.40;99.90;;;;;;1949019;73;21096;-79
2023/05/31 08:44:56;;;;;;;6.83;4.53;;;22.50;99.90;;;;;;1957125;72;22174;-79
2023/05/31 08:47:50;;;;;;;6.17;4.55;;;22.40;99.90;;;;;;1898274;75;21099;-78
2023/05/31 08:50:42;;;;;;;8.55;5.08;;;22.50;99.90;;;;;;1907163;75;21097;-79
2023/05/31 08:56:23;;;;;;;7.85;4.72;;;22.50;99.90;;;;;;1954292;72;22178;-78
2023/05/31 08:59:18;;;;;;;11.60;5.72;;;22.50;99.90;;;;;;1928817;73;21131;-78
2023/05/31 09:02:11;;;;;;;7.03;4.72;;;22.60;99.90;;;;;;1930971;73;21198;-79
2023/05/31 09:05:04;;;;;;;7.10;4.35;;;22.90;99.90;;;;;;1916500;75;21130;-79
2023/05/31 09:07:56;;;;;;;8.70;4.47;;;23.00;99.90;;;;;;1916539;75;21103;-79
2023/05/31 09:13:27;;;;;;;5.50;4.97;;;23.10;99.90;;;;;;1945648;72;22194;-79
2023/05/31 09:16:18;;;;;;;9.60;4.83;;;23.20;99.90;;;;;;1905727;75;21166;-78
2023/05/31 09:19:09;;;;;;;8.18;4.65;;;23.20;99.90;;;;;;1905573;75;21102;-78
2023/05/31 09:22:01;;;;;;;5.30;4.50;;;23.10;99.90;;;;;;1888797;75;21118;-78
2023/05/31 09:24:54;;;;;;;6.40;3.75;;;23.40;99.90;;;;;;1920287;73;21255;-78
2023/05/31 09:27:45;;;;;;;5.10;3.60;;;23.50;99.90;;;;;;1892367;75;21109;-78
2023/05/31 09:30:36;;;;;;;4.60;3.65;;;23.70;99.90;;;;;;1894286;75;21102;-79
2023/05/31 09:36:24;;;;;;;6.15;3.52;;;24.00;99.90;;;;;;1954931;72;22170;-79
2023/05/31 09:39:16;;;;;;;4.20;3.45;;;24.00;99.90;;;;;;1894825;74;21145;-79
2023/05/31 09:42:14;;;;;;;6.95;3.60;;;24.00;99.90;;;;;;1894100;75;21160;-79
2023/05/31 09:45:08;;;;;;;4.87;3.22;;;24.20;99.90;;;;;;1916326;75;21103;-77
2023/05/31 09:48:00;;;;;;;4.55;3.50;;;24.40;99.90;;;;;;1900554;75;21566;-78
2023/05/31 09:50:52;;;;;;;4.08;3.25;;;24.50;99.90;;;;;;1894679;75;21522;-76
2023/05/31 09:53:45;;;;;;;4.80;3.02;;;24.70;99.90;;;;;;1887736;75;21057;-77
2023/05/31 09:56:40;;;;;;;3.80;3.40;;;24.50;99.90;;;;;;1882883;75;21620;-77
2023/05/31 09:59:33;;;;;;;6.53;3.85;;;24.60;99.90;;;;;;1901256;75;21099;-77
2023/05/31 10:02:25;;;;;;;6.97;4.20;;;24.80;99.90;;;;;;1896876;75;21114;-77
2023/05/31 10:05:17;;;;;;;6.70;4.08;;;24.70;99.90;;;;;;1885388;75;21112;-78
2023/05/31 10:08:08;;;;;;;8.10;3.55;;;24.30;99.90;;;;;;1887677;75;21382;-78
2023/05/31 10:11:01;;;;;;;9.28;4.30;;;24.40;99.90;;;;;;1895799;75;21135;-77
2023/05/31 10:16:38;;;;;;;5.97;3.58;;;24.80;99.90;;;;;;1943784;72;22134;-79
2023/05/31 10:19:33;;;;;;;5.28;3.87;;;24.90;99.90;;;;;;1908553;75;21180;-77
2023/05/31 10:22:25;;;;;;;4.92;3.65;;;25.10;99.90;;;;;;1913864;75;21098;-78
2023/05/31 10:25:23;;;;;;;5.90;3.77;;;25.10;99.90;;;;;;1912992;75;21135;-78
2023/05/31 10:28:17;;;;;;;7.22;3.90;;;25.10;99.90;;;;;;1893548;75;21588;-78
2023/05/31 10:31:11;;;;;;;5.50;4.05;;;25.20;99.90;;;;;;1909107;75;21172;-78
2023/05/31 10:36:46;;;;;;;6.58;4.50;;;25.10;99.90;;;;;;1954387;72;22331;-78
2023/05/31 10:39:43;;;;;;;11.22;6.08;;;25.10;99.90;;;;;;1901333;75;21152;-78
2023/05/31 10:42:39;;;;;;;5.40;4.15;;;25.10;99.90;;;;;;1890306;74;21103;-78
2023/05/31 10:45:35;;;;;;;8.30;5.80;;;25.10;99.90;;;;;;1883891;75;21166;-78
2023/05/31 10:51:09;;;;;;;6.30;4.12;;;24.80;99.90;;;;;;1939979;72;22436;-78
2023/05/31 10:54:00;;;;;;;6.83;3.92;;;25.00;99.90;;;;;;1894716;75;21171;-78
2023/05/31 10:56:57;;;;;;;5.30;3.77;;;25.20;99.90;;;;;;1894418;75;21562;-78
2023/05/31 10:59:48;;;;;;;4.85;4.22;;;25.40;99.90;;;;;;1894669;75;21098;-78
2023/05/31 11:02:42;;;;;;;5.33;4.00;;;25.30;99.90;;;;;;1897053;75;21235;-78
2023/05/31 11:05:34;;;;;;;4.92;4.40;;;25.30;99.90;;;;;;1883533;75;21170;-78
2023/05/31 11:08:26;;;;;;;3.75;3.37;;;25.40;99.90;;;;;;1905860;75;21150;-79
2023/05/31 11:11:47;;;;;;;5.08;4.05;;;25.50;99.90;;;;;;1901361;75;21143;-78
2023/05/31 11:14:38;;;;;;;6.25;4.00;;;25.40;99.90;;;;;;1894122;75;21145;-78
2023/05/31 11:17:30;;;;;;;4.85;3.80;;;25.50;99.90;;;;;;1894529;75;21556;-71
2023/05/31 11:20:22;;;;;;;5.65;3.62;;;25.70;99.90;;;;;;1900092;75;21114;-70
2023/05/31 11:23:28;;;;;;;6.30;3.98;;;25.80;99.90;;;;;;1887207;73;21196;-70
2023/05/31 11:29:02;;;;;;;6.08;3.85;;;25.90;99.90;;;;;;1950899;72;22588;-70
2023/05/31 11:32:03;;;;;;;4.12;3.65;;;26.10;99.90;;;;;;1903432;75;21125;-70
2023/05/31 11:34:56;;;;;;;5.75;3.70;;;25.80;99.90;;;;;;1900003;75;21142;-70
2023/05/31 11:37:48;;;;;;;8.00;3.90;;;25.80;99.90;;;;;;1894813;75;21094;-69
2023/05/31 11:40:40;;;;;;;5.08;3.60;;;25.80;99.90;;;;;;1894140;75;21116;-70
2023/05/31 11:43:33;;;;;;;4.12;3.40;;;26.20;99.90;;;;;;1893372;75;21187;-70
2023/05/31 11:46:25;;;;;;;4.83;3.55;;;26.00;99.90;;;;;;1901064;75;21130;-70
2023/05/31 11:49:16;;;;;;;22.95;15.90;;;26.00;99.90;;;;;;1895597;75;21055;-70
2023/05/31 11:52:08;;;;;;;4.10;3.20;;;25.70;99.90;;;;;;1909870;75;21172;-70
2023/05/31 11:55:06;;;;;;;3.22;2.92;;;25.70;99.90;;;;;;1905278;75;21523;-70
2023/05/31 11:57:58;;;;;;;4.80;3.35;;;25.80;99.90;;;;;;1904079;75;21136;-70
2023/05/31 12:00:51;;;;;;;3.83;3.02;;;25.70;99.90;;;;;;1900885;75;21205;-70
2023/05/31 12:03:43;;;;;;;4.67;2.92;;;26.00;99.90;;;;;;1905720;75;21127;-71
2023/05/31 12:06:35;;;;;;;3.90;2.95;;;26.30;99.90;;;;;;1888580;75;21098;-70
2023/05/31 12:09:27;;;;;;;3.52;3.20;;;26.30;99.90;;;;;;1894188;75;21650;-70
2023/05/31 12:12:19;;;;;;;2.98;2.67;;;26.30;99.90;;;;;;1900246;75;21135;-70
2023/05/31 12:15:12;;;;;;;4.25;2.95;;;26.10;99.90;;;;;;1894934;75;21651;-71
2023/05/31 12:18:03;;;;;;;3.72;3.00;;;26.40;99.90;;;;;;1910177;75;21164;-70
2023/05/31 12:20:54;;;;;;;5.22;3.15;;;26.60;99.90;;;;;;1884099;75;21116;-70
2023/05/31 12:23:57;;;;;;;4.00;2.90;;;27.00;99.90;;;;;;1914250;75;21063;-70
2023/05/31 12:26:49;;;;;;;3.20;2.90;;;27.10;99.90;;;;;;1916477;75;21176;-70
2023/05/31 12:29:41;;;;;;;4.00;2.92;;;26.80;99.90;;;;;;1902604;74;21232;-70
2023/05/31 12:32:32;;;;;;;4.25;2.77;;;26.30;99.90;;;;;;1904184;74;21979;-70
2023/05/31 12:35:26;;;;;;;4.60;3.12;;;26.30;99.90;;;;;;1892412;76;21207;-70
2023/05/31 12:38:17;;;;;;;4.35;3.12;;;26.20;99.90;;;;;;1909305;74;21123;-70
2023/05/31 12:41:09;;;;;;;4.83;3.12;;;26.40;99.90;;;;;;1904202;74;21102;-70
2023/05/31 12:44:01;;;;;;;4.17;2.87;;;26.50;99.90;;;;;;1896189;74;21098;-70
2023/05/31 12:46:55;;;;;;;3.65;3.00;;;26.60;99.90;;;;;;1913819;74;21121;-70
2023/05/31 12:49:46;;;;;;;3.83;2.90;;;26.50;99.90;;;;;;1909752;74;21213;-70
2023/05/31 12:52:39;;;;;;;4.10;2.90;;;26.40;99.90;;;;;;1891664;74;21116;-70
2023/05/31 12:55:30;;;;;;;4.60;3.02;;;26.80;99.90;;;;;;1896151;74;21130;-70
2023/05/31 12:58:21;;;;;;;4.55;3.33;;;27.10;99.90;;;;;;1895916;74;21165;-70
2023/05/31 13:01:13;;;;;;;3.83;3.52;;;27.40;99.90;;;;;;1905505;74;21091;-70
2023/05/31 13:04:04;;;;;;;4.72;3.35;;;27.40;99.90;;;;;;1907289;74;21089;-70
2023/05/31 13:06:57;;;;;;;4.03;3.15;;;27.00;99.90;;;;;;1903635;74;21152;-70
2023/05/31 13:09:48;;;;;;;3.77;3.42;;;26.90;99.90;;;;;;1903281;74;21555;-70
2023/05/31 13:12:40;;;;;;;3.80;3.40;;;26.60;99.90;;;;;;1903504;74;21114;-70
2023/05/31 13:15:31;;;;;;;4.28;3.30;;;26.40;99.90;;;;;;1908960;74;21102;-70
2023/05/31 13:18:22;;;;;;;3.98;3.30;;;26.30;99.90;;;;;;1903737;74;21134;-71
2023/05/31 13:21:14;;;;;;;3.70;3.40;;;26.30;99.90;;;;;;1902866;74;21351;-71
2023/05/31 13:24:07;;;;;;;3.85;3.45;;;26.30;99.90;;;;;;1907020;74;21164;-73
2023/05/31 13:26:58;;;;;;;6.70;3.67;;;26.20;99.90;;;;;;1907730;74;21098;-71
2023/05/31 13:29:49;;;;;;;10.35;3.75;;;26.40;99.90;;;;;;1905594;74;21151;-71
2023/05/31 13:32:41;;;;;;;7.05;3.70;;;26.50;99.90;;;;;;1898976;74;21222;-71
2023/05/31 13:35:33;;;;;;;5.92;3.60;;;26.60;99.90;;;;;;1894424;74;21167;-72
2023/05/31 13:38:25;;;;;;;3.33;2.92;;;26.70;99.90;;;;;;1906055;74;21177;-72
2023/05/31 13:41:16;;;;;;;3.33;3.02;;;26.90;99.90;;;;;;1893313;74;21130;-72
2023/05/31 13:44:08;;;;;;;5.25;3.25;;;26.80;99.90;;;;;;1892528;76;21130;-71
2023/05/31 13:46:59;;;;;;;5.75;3.25;;;26.90;99.90;;;;;;1914747;74;21168;-71
2023/05/31 13:49:51;;;;;;;4.70;3.42;;;27.40;99.90;;;;;;1913197;74;21115;-71
2023/05/31 13:52:43;;;;;;;3.33;3.02;;;28.00;99.90;;;;;;1907769;74;21135;-71
2023/05/31 13:55:36;;;;;;;4.22;3.30;;;28.20;99.90;;;;;;1896517;74;21166;-70
2023/05/31 13:58:30;;;;;;;4.78;3.08;;;28.70;99.90;;;;;;1913760;74;21181;-70
2023/05/31 14:01:21;;;;;;;4.65;3.00;;;29.30;99.90;;;;;;1892627;74;21063;-70
2023/05/31 14:04:13;;;;;;;5.92;3.42;;;29.50;99.90;;;;;;1908088;74;21094;-70
2023/05/31 14:07:05;;;;;;;4.83;4.10;;;29.40;99.90;;;;;;1904654;74;21086;-70
2023/05/31 14:09:56;;;;;;;4.05;3.52;;;29.10;99.90;;;;;;1903647;74;21135;-71
2023/05/31 14:12:48;;;;;;;3.62;3.33;;;29.00;99.90;;;;;;1903313;74;21480;-70
2023/05/31 14:15:39;;;;;;;4.10;3.15;;;29.30;99.90;;;;;;1907319;74;21101;-70
2023/05/31 14:18:31;;;;;;;3.83;3.12;;;29.20;99.20;;;;;;1905963;74;21569;-70
2023/05/31 14:21:22;;;;;;;5.28;3.33;;;29.00;99.60;;;;;;1903163;74;21085;-71
2023/05/31 14:24:13;;;;;;;4.30;3.17;;;28.30;98.60;;;;;;1930473;73;21109;-71
2023/05/31 14:27:07;;;;;;;3.62;3.05;;;27.70;99.10;;;;;;1898429;75;21226;-71
2023/05/31 14:32:38;;;;;;;4.47;2.80;;;27.30;99.50;;;;;;1941062;72;22176;-70
2023/05/31 14:38:11;;;;;;;4.58;3.27;;;26.80;99.50;;;;;;1923454;72;22247;-70
2023/05/31 14:43:43;;;;;;;3.70;2.67;;;26.40;99.50;;;;;;1936706;72;22296;-71
2023/05/31 14:46:34;;;;;;;3.22;2.80;;;26.10;98.20;;;;;;1893450;74;21220;-71
2023/05/31 14:49:26;;;;;;;5.28;2.85;;;25.90;98.20;;;;;;1898334;75;21155;-71
2023/05/31 14:52:17;;;;;;;3.22;2.92;;;26.00;99.10;;;;;;1894070;75;21208;-70
2023/05/31 14:55:11;;;;;;;5.12;2.70;;;26.20;99.60;;;;;;1894483;75;21110;-71
2023/05/31 14:58:02;;;;;;;3.00;2.62;;;26.00;99.20;;;;;;1894491;75;21117;-71
2023/05/31 15:00:56;;;;;;;2.83;2.52;;;25.70;99.60;;;;;;1885500;73;21091;-71
2023/05/31 15:03:48;;;;;;;2.60;2.08;;;25.70;99.50;;;;;;1895560;75;21121;-72
2023/05/31 15:06:40;;;;;;;2.95;2.35;;;26.30;98.80;;;;;;1897759;75;21122;-72
2023/05/31 15:09:32;;;;;;;3.05;1.80;;;26.40;98.30;;;;;;1890078;75;21134;-71
2023/05/31 15:12:23;;;;;;;2.20;1.90;;;26.30;97.90;;;;;;1896809;75;21113;-71
2023/05/31 15:15:15;;;;;;;2.12;1.72;;;25.90;98.60;;;;;;1905765;75;21283;-71
2023/05/31 15:18:07;;;;;;;3.62;2.08;;;25.50;99.20;;;;;;1893607;75;21047;-71
2023/05/31 15:20:59;;;;;;;5.10;2.27;;;25.30;99.90;;;;;;1900839;75;21191;-71
2023/05/31 15:23:51;;;;;;;3.42;2.00;;;25.10;99.90;;;;;;1888840;75;21096;-71
2023/05/31 15:26:43;;;;;;;2.42;2.22;;;25.10;99.90;;;;;;1889278;75;21174;-71
2023/05/31 15:29:35;;;;;;;2.80;2.08;;;25.00;99.90;;;;;;1905647;75;21100;-71
2023/05/31 15:32:26;;;;;;;3.15;2.60;;;24.90;99.90;;;;;;1883099;76;21063;-72
2023/05/31 15:35:18;;;;;;;4.53;2.27;;;24.90;99.90;;;;;;1904205;75;21135;-70
2023/05/31 15:38:10;;;;;;;2.20;2.00;;;24.80;99.90;;;;;;1911162;75;21122;-71